Decoded Metar for LFBZ (BIARRITZ-BAYONNE in FRANCE) (IATA:BIQ) | Meteo·Mobile Aviation Weather
aviador You're here:

LFBZ Decoded Metar

BIARRITZ-BAYONNE in FRANCE
Report Time2019-02-21 23:30:00
UTC Time2019-02-21 23:39:48
Flight Rules vfr VFR
Wind150° at 04 kt
W.Decomp.*RWY 09: 1.9 kt HW 3.5 kt RCW
W.Rank150° ranks 14
Current wind is above 150° avg. (3.8)
Visibility9999 m
Phenomena:N/A
Clouds:N/A
Expected CloudBase > 3,200 ft AGL from Temp-Dew spread
CeilingNone
Temp11°C (ISA -4)
Dew Point03°C (58% RH)
AAT8.1°C
QNH1029 hPa
Density Alt-623 ft
Elevation233 ft
Report Wrong Elevation
Raw Report
METAR LFBZ 212330Z AUTO 15004KT CAVOK 11/03 Q1029 NOSIG=

Extra information for LFBZ:More info

Metar Taf Metar & Taf Last 4 Metars F.Rules Stats Wind Profile Meteogram Temp Stats Airport Information Weather charts Add Link Nearby VenuesMetar ALERT Operation Metar Decoded Social comments